sensor_id;sensor_type;location;lat;lon;timestamp;P1;durP1;ratioP1;P2;durP2;ratioP2
15673;SDS011;7937;48.090;16.212;2022-08-19T00:02:57;5.13;;;2.80;;
15673;SDS011;7937;48.090;16.212;2022-08-19T00:05:59;4.43;;;2.67;;
15673;SDS011;7937;48.090;16.212;2022-08-19T00:09:02;9.67;;;2.87;;
15673;SDS011;7937;48.090;16.212;2022-08-19T00:12:06;6.17;;;2.70;;
15673;SDS011;7937;48.090;16.212;2022-08-19T00:15:09;6.60;;;3.57;;
15673;SDS011;7937;48.090;16.212;2022-08-19T00:18:14;6.77;;;3.30;;
15673;SDS011;7937;48.090;16.212;2022-08-19T00:21:16;6.23;;;2.80;;
15673;SDS011;7937;48.090;16.212;2022-08-19T00:24:18;8.73;;;2.90;;
15673;SDS011;7937;48.090;16.212;2022-08-19T00:27:21;4.93;;;2.47;;
15673;SDS011;7937;48.090;16.212;2022-08-19T00:30:26;9.73;;;3.00;;
15673;SDS011;7937;48.090;16.212;2022-08-19T00:33:32;7.70;;;3.00;;
15673;SDS011;7937;48.090;16.212;2022-08-19T00:36:34;7.07;;;2.57;;
15673;SDS011;7937;48.090;16.212;2022-08-19T00:39:36;8.63;;;2.97;;
15673;SDS011;7937;48.090;16.212;2022-08-19T00:42:39;6.67;;;2.67;;
15673;SDS011;7937;48.090;16.212;2022-08-19T00:45:42;6.10;;;2.70;;
15673;SDS011;7937;48.090;16.212;2022-08-19T00:48:45;7.83;;;2.90;;
15673;SDS011;7937;48.090;16.212;2022-08-19T00:51:48;5.10;;;2.67;;
15673;SDS011;7937;48.090;16.212;2022-08-19T00:54:55;6.30;;;2.57;;
15673;SDS011;7937;48.090;16.212;2022-08-19T00:58:02;10.43;;;2.57;;
15673;SDS011;7937;48.090;16.212;2022-08-19T01:05:14;8.53;;;3.00;;
15673;SDS011;7937;48.090;16.212;2022-08-19T01:08:20;5.40;;;2.60;;
15673;SDS011;7937;48.090;16.212;2022-08-19T01:11:22;6.80;;;2.67;;
15673;SDS011;7937;48.090;16.212;2022-08-19T01:14:25;8.13;;;3.43;;
15673;SDS011;7937;48.090;16.212;2022-08-19T01:17:27;11.30;;;3.50;;
15673;SDS011;7937;48.090;16.212;2022-08-19T01:20:29;8.03;;;3.03;;
15673;SDS011;7937;48.090;16.212;2022-08-19T01:23:32;8.07;;;3.20;;
15673;SDS011;7937;48.090;16.212;2022-08-19T01:26:46;10.43;;;3.00;;
15673;SDS011;7937;48.090;16.212;2022-08-19T01:29:49;7.43;;;3.23;;
15673;SDS011;7937;48.090;16.212;2022-08-19T01:32:51;7.47;;;2.57;;
15673;SDS011;7937;48.090;16.212;2022-08-19T01:36:02;6.37;;;2.70;;
15673;SDS011;7937;48.090;16.212;2022-08-19T01:39:10;7.67;;;2.97;;
15673;SDS011;7937;48.090;16.212;2022-08-19T01:42:14;6.93;;;3.13;;
15673;SDS011;7937;48.090;16.212;2022-08-19T01:45:17;6.97;;;2.40;;
15673;SDS011;7937;48.090;16.212;2022-08-19T01:48:20;7.97;;;2.87;;
15673;SDS011;7937;48.090;16.212;2022-08-19T01:51:23;9.37;;;3.03;;
15673;SDS011;7937;48.090;16.212;2022-08-19T01:54:25;10.17;;;3.27;;
15673;SDS011;7937;48.090;16.212;2022-08-19T01:57:28;11.23;;;3.30;;
15673;SDS011;7937;48.090;16.212;2022-08-19T02:00:31;8.87;;;2.77;;
15673;SDS011;7937;48.090;16.212;2022-08-19T02:03:34;4.83;;;2.60;;
15673;SDS011;7937;48.090;16.212;2022-08-19T02:06:36;7.43;;;2.63;;
15673;SDS011;7937;48.090;16.212;2022-08-19T02:09:38;5.47;;;3.23;;
15673;SDS011;7937;48.090;16.212;2022-08-19T02:12:41;10.33;;;3.17;;
15673;SDS011;7937;48.090;16.212;2022-08-19T02:15:43;9.63;;;3.20;;
15673;SDS011;7937;48.090;16.212;2022-08-19T02:18:46;8.37;;;3.50;;
15673;SDS011;7937;48.090;16.212;2022-08-19T02:21:52;6.00;;;2.90;;
15673;SDS011;7937;48.090;16.212;2022-08-19T02:24:54;10.90;;;3.20;;
15673;SDS011;7937;48.090;16.212;2022-08-19T02:27:57;11.07;;;3.33;;
15673;SDS011;7937;48.090;16.212;2022-08-19T02:30:59;6.67;;;2.97;;
15673;SDS011;7937;48.090;16.212;2022-08-19T02:34:02;6.73;;;2.70;;
15673;SDS011;7937;48.090;16.212;2022-08-19T02:37:04;8.30;;;2.70;;
15673;SDS011;7937;48.090;16.212;2022-08-19T02:40:07;7.20;;;3.50;;
15673;SDS011;7937;48.090;16.212;2022-08-19T02:43:13;9.70;;;2.80;;
15673;SDS011;7937;48.090;16.212;2022-08-19T02:46:17;8.37;;;3.60;;
15673;SDS011;7937;48.090;16.212;2022-08-19T02:49:22;11.53;;;3.43;;
15673;SDS011;7937;48.090;16.212;2022-08-19T02:52:24;9.07;;;3.23;;
15673;SDS011;7937;48.090;16.212;2022-08-19T02:55:27;8.67;;;2.87;;
15673;SDS011;7937;48.090;16.212;2022-08-19T02:58:29;8.60;;;2.87;;
15673;SDS011;7937;48.090;16.212;2022-08-19T03:04:58;6.97;;;2.67;;
15673;SDS011;7937;48.090;16.212;2022-08-19T03:08:00;4.67;;;2.20;;
15673;SDS011;7937;48.090;16.212;2022-08-19T03:11:03;6.37;;;2.63;;
15673;SDS011;7937;48.090;16.212;2022-08-19T03:14:06;5.77;;;2.50;;
15673;SDS011;7937;48.090;16.212;2022-08-19T03:17:10;8.37;;;2.60;;
15673;SDS011;7937;48.090;16.212;2022-08-19T03:20:12;5.90;;;2.73;;
15673;SDS011;7937;48.090;16.212;2022-08-19T03:23:15;8.07;;;2.60;;
15673;SDS011;7937;48.090;16.212;2022-08-19T03:26:18;4.23;;;2.37;;
15673;SDS011;7937;48.090;16.212;2022-08-19T03:29:20;7.50;;;2.90;;
15673;SDS011;7937;48.090;16.212;2022-08-19T03:32:32;5.17;;;2.40;;
15673;SDS011;7937;48.090;16.212;2022-08-19T03:35:35;5.60;;;2.50;;
15673;SDS011;7937;48.090;16.212;2022-08-19T03:38:41;7.77;;;2.87;;
15673;SDS011;7937;48.090;16.212;2022-08-19T03:41:46;4.30;;;2.10;;
15673;SDS011;7937;48.090;16.212;2022-08-19T03:45:11;5.67;;;2.77;;
15673;SDS011;7937;48.090;16.212;2022-08-19T03:48:14;4.37;;;2.50;;
15673;SDS011;7937;48.090;16.212;2022-08-19T03:51:19;5.93;;;2.50;;
15673;SDS011;7937;48.090;16.212;2022-08-19T03:54:31;7.73;;;2.93;;
15673;SDS011;7937;48.090;16.212;2022-08-19T03:57:33;4.53;;;2.63;;
15673;SDS011;7937;48.090;16.212;2022-08-19T04:00:36;9.13;;;3.43;;
15673;SDS011;7937;48.090;16.212;2022-08-19T04:03:38;4.77;;;2.53;;
15673;SDS011;7937;48.090;16.212;2022-08-19T04:06:42;7.90;;;2.70;;
15673;SDS011;7937;48.090;16.212;2022-08-19T04:09:45;7.17;;;2.60;;
15673;SDS011;7937;48.090;16.212;2022-08-19T04:12:47;6.83;;;2.50;;
15673;SDS011;7937;48.090;16.212;2022-08-19T04:15:49;4.93;;;2.80;;
15673;SDS011;7937;48.090;16.212;2022-08-19T04:18:51;4.50;;;2.50;;
15673;SDS011;7937;48.090;16.212;2022-08-19T04:21:53;5.83;;;2.40;;
15673;SDS011;7937;48.090;16.212;2022-08-19T04:24:56;6.20;;;2.60;;
15673;SDS011;7937;48.090;16.212;2022-08-19T04:27:58;6.27;;;2.37;;
15673;SDS011;7937;48.090;16.212;2022-08-19T04:30:59;6.43;;;2.33;;
15673;SDS011;7937;48.090;16.212;2022-08-19T04:34:06;5.90;;;2.50;;
15673;SDS011;7937;48.090;16.212;2022-08-19T04:37:09;6.83;;;3.30;;
15673;SDS011;7937;48.090;16.212;2022-08-19T04:40:14;5.77;;;2.37;;
15673;SDS011;7937;48.090;16.212;2022-08-19T04:43:36;4.37;;;2.23;;
15673;SDS011;7937;48.090;16.212;2022-08-19T04:46:40;6.30;;;2.90;;
15673;SDS011;7937;48.090;16.212;2022-08-19T04:49:52;7.27;;;2.80;;
15673;SDS011;7937;48.090;16.212;2022-08-19T04:52:54;4.37;;;2.23;;
15673;SDS011;7937;48.090;16.212;2022-08-19T04:55:59;6.63;;;2.87;;
15673;SDS011;7937;48.090;16.212;2022-08-19T04:59:05;4.80;;;2.43;;
15673;SDS011;7937;48.090;16.212;2022-08-19T05:02:08;5.53;;;2.50;;
15673;SDS011;7937;48.090;16.212;2022-08-19T05:05:10;8.50;;;2.53;;
15673;SDS011;7937;48.090;16.212;2022-08-19T05:08:14;7.23;;;2.80;;
15673;SDS011;7937;48.090;16.212;2022-08-19T05:11:33;7.10;;;2.50;;
15673;SDS011;7937;48.090;16.212;2022-08-19T05:14:40;4.83;;;2.90;;
15673;SDS011;7937;48.090;16.212;2022-08-19T05:17:42;8.93;;;2.80;;
15673;SDS011;7937;48.090;16.212;2022-08-19T05:21:06;6.63;;;3.23;;
15673;SDS011;7937;48.090;16.212;2022-08-19T05:24:28;5.40;;;2.97;;
15673;SDS011;7937;48.090;16.212;2022-08-19T05:27:31;8.13;;;3.20;;
15673;SDS011;7937;48.090;16.212;2022-08-19T05:30:34;5.37;;;2.80;;
15673;SDS011;7937;48.090;16.212;2022-08-19T05:33:48;7.57;;;2.93;;
15673;SDS011;7937;48.090;16.212;2022-08-19T05:36:56;5.27;;;2.60;;
15673;SDS011;7937;48.090;16.212;2022-08-19T05:39:59;5.47;;;2.57;;
15673;SDS011;7937;48.090;16.212;2022-08-19T05:43:03;7.17;;;3.03;;
15673;SDS011;7937;48.090;16.212;2022-08-19T05:46:07;8.33;;;3.37;;
15673;SDS011;7937;48.090;16.212;2022-08-19T05:49:10;9.73;;;4.40;;
15673;SDS011;7937;48.090;16.212;2022-08-19T05:52:13;6.13;;;4.20;;
15673;SDS011;7937;48.090;16.212;2022-08-19T05:55:19;6.03;;;4.33;;
15673;SDS011;7937;48.090;16.212;2022-08-19T05:58:25;8.67;;;5.40;;
15673;SDS011;7937;48.090;16.212;2022-08-19T06:01:28;7.23;;;5.20;;
15673;SDS011;7937;48.090;16.212;2022-08-19T06:04:51;6.87;;;6.10;;
15673;SDS011;7937;48.090;16.212;2022-08-19T06:07:53;9.20;;;6.50;;
15673;SDS011;7937;48.090;16.212;2022-08-19T06:10:56;8.20;;;6.00;;
15673;SDS011;7937;48.090;16.212;2022-08-19T06:14:00;6.73;;;6.00;;
15673;SDS011;7937;48.090;16.212;2022-08-19T06:17:04;7.27;;;5.73;;
15673;SDS011;7937;48.090;16.212;2022-08-19T06:20:09;9.87;;;6.53;;
15673;SDS011;7937;48.090;16.212;2022-08-19T06:23:13;6.30;;;5.70;;
15673;SDS011;7937;48.090;16.212;2022-08-19T06:26:18;6.13;;;5.53;;
15673;SDS011;7937;48.090;16.212;2022-08-19T06:29:21;8.57;;;5.57;;
15673;SDS011;7937;48.090;16.212;2022-08-19T06:32:26;6.70;;;5.37;;
15673;SDS011;7937;48.090;16.212;2022-08-19T06:35:28;5.63;;;5.13;;
15673;SDS011;7937;48.090;16.212;2022-08-19T06:38:31;6.40;;;5.70;;
15673;SDS011;7937;48.090;16.212;2022-08-19T06:41:35;5.20;;;4.77;;
15673;SDS011;7937;48.090;16.212;2022-08-19T06:44:51;6.33;;;4.93;;
15673;SDS011;7937;48.090;16.212;2022-08-19T06:47:54;6.33;;;4.70;;
15673;SDS011;7937;48.090;16.212;2022-08-19T06:50:57;5.53;;;4.77;;
15673;SDS011;7937;48.090;16.212;2022-08-19T06:53:59;5.77;;;4.70;;
15673;SDS011;7937;48.090;16.212;2022-08-19T06:57:03;4.87;;;4.40;;
15673;SDS011;7937;48.090;16.212;2022-08-19T07:00:06;6.93;;;4.83;;
15673;SDS011;7937;48.090;16.212;2022-08-19T07:03:13;5.10;;;4.27;;
15673;SDS011;7937;48.090;16.212;2022-08-19T07:06:16;4.40;;;4.00;;
15673;SDS011;7937;48.090;16.212;2022-08-19T07:09:40;5.07;;;4.17;;
15673;SDS011;7937;48.090;16.212;2022-08-19T07:12:54;7.53;;;4.00;;
15673;SDS011;7937;48.090;16.212;2022-08-19T07:15:56;4.57;;;4.10;;
15673;SDS011;7937;48.090;16.212;2022-08-19T07:18:58;3.80;;;3.50;;
15673;SDS011;7937;48.090;16.212;2022-08-19T07:22:16;4.03;;;3.60;;
15673;SDS011;7937;48.090;16.212;2022-08-19T07:25:19;4.53;;;4.00;;
15673;SDS011;7937;48.090;16.212;2022-08-19T07:28:33;4.68;;;4.20;;
15673;SDS011;7937;48.090;16.212;2022-08-19T07:31:36;4.75;;;4.32;;
15673;SDS011;7937;48.090;16.212;2022-08-19T07:34:39;5.07;;;4.38;;
15673;SDS011;7937;48.090;16.212;2022-08-19T07:37:43;5.47;;;4.45;;
15673;SDS011;7937;48.090;16.212;2022-08-19T07:40:46;4.10;;;3.80;;
15673;SDS011;7937;48.090;16.212;2022-08-19T07:43:48;3.85;;;3.40;;
15673;SDS011;7937;48.090;16.212;2022-08-19T07:46:52;3.95;;;3.65;;
15673;SDS011;7937;48.090;16.212;2022-08-19T07:49:57;4.30;;;3.88;;
15673;SDS011;7937;48.090;16.212;2022-08-19T07:52:59;4.90;;;4.15;;
15673;SDS011;7937;48.090;16.212;2022-08-19T07:56:01;4.38;;;3.97;;
15673;SDS011;7937;48.090;16.212;2022-08-19T07:59:05;4.22;;;3.92;;
15673;SDS011;7937;48.090;16.212;2022-08-19T08:02:08;4.78;;;3.97;;
15673;SDS011;7937;48.090;16.212;2022-08-19T08:05:10;4.15;;;3.83;;
15673;SDS011;7937;48.090;16.212;2022-08-19T08:08:34;4.07;;;3.67;;
15673;SDS011;7937;48.090;16.212;2022-08-19T08:11:56;3.60;;;3.30;;
15673;SDS011;7937;48.090;16.212;2022-08-19T08:15:27;4.40;;;3.35;;
15673;SDS011;7937;48.090;16.212;2022-08-19T08:18:29;4.13;;;3.25;;
15673;SDS011;7937;48.090;16.212;2022-08-19T08:21:33;4.00;;;3.60;;
15673;SDS011;7937;48.090;16.212;2022-08-19T08:24:35;6.38;;;3.67;;
15673;SDS011;7937;48.090;16.212;2022-08-19T08:27:41;4.60;;;3.70;;
15673;SDS011;7937;48.090;16.212;2022-08-19T08:30:47;6.10;;;3.47;;
15673;SDS011;7937;48.090;16.212;2022-08-19T08:33:51;5.85;;;3.50;;
15673;SDS011;7937;48.090;16.212;2022-08-19T08:36:53;3.40;;;3.10;;
15673;SDS011;7937;48.090;16.212;2022-08-19T08:39:55;5.35;;;3.42;;
15673;SDS011;7937;48.090;16.212;2022-08-19T08:43:00;4.05;;;3.00;;
15673;SDS011;7937;48.090;16.212;2022-08-19T08:46:30;3.70;;;3.10;;
15673;SDS011;7937;48.090;16.212;2022-08-19T08:49:45;3.70;;;3.40;;
15673;SDS011;7937;48.090;16.212;2022-08-19T08:52:55;6.03;;;4.10;;
15673;SDS011;7937;48.090;16.212;2022-08-19T08:56:00;4.65;;;2.88;;
15673;SDS011;7937;48.090;16.212;2022-08-19T08:59:05;4.25;;;3.58;;
15673;SDS011;7937;48.090;16.212;2022-08-19T09:02:21;3.97;;;3.03;;
15673;SDS011;7937;48.090;16.212;2022-08-19T09:05:25;4.22;;;3.28;;
15673;SDS011;7937;48.090;16.212;2022-08-19T09:12:13;3.45;;;3.15;;
15673;SDS011;7937;48.090;16.212;2022-08-19T09:15:40;6.32;;;3.15;;
15673;SDS011;7937;48.090;16.212;2022-08-19T09:18:49;4.25;;;3.63;;
15673;SDS011;7937;48.090;16.212;2022-08-19T09:21:56;4.60;;;3.22;;
15673;SDS011;7937;48.090;16.212;2022-08-19T09:24:58;5.07;;;3.40;;
15673;SDS011;7937;48.090;16.212;2022-08-19T09:28:01;3.90;;;2.75;;
15673;SDS011;7937;48.090;16.212;2022-08-19T09:31:24;6.25;;;3.05;;
15673;SDS011;7937;48.090;16.212;2022-08-19T09:34:28;5.60;;;3.78;;
15673;SDS011;7937;48.090;16.212;2022-08-19T09:37:38;7.68;;;3.00;;
15673;SDS011;7937;48.090;16.212;2022-08-19T09:40:40;7.60;;;3.20;;
15673;SDS011;7937;48.090;16.212;2022-08-19T09:43:47;6.07;;;3.22;;
15673;SDS011;7937;48.090;16.212;2022-08-19T09:46:53;6.38;;;3.53;;
15673;SDS011;7937;48.090;16.212;2022-08-19T09:49:55;8.50;;;4.10;;
15673;SDS011;7937;48.090;16.212;2022-08-19T09:52:59;4.80;;;3.38;;
15673;SDS011;7937;48.090;16.212;2022-08-19T09:56:01;4.88;;;3.60;;
15673;SDS011;7937;48.090;16.212;2022-08-19T09:59:04;6.82;;;3.17;;
15673;SDS011;7937;48.090;16.212;2022-08-19T10:02:06;4.15;;;3.42;;
15673;SDS011;7937;48.090;16.212;2022-08-19T10:05:11;7.18;;;3.17;;
15673;SDS011;7937;48.090;16.212;2022-08-19T10:08:33;4.38;;;3.25;;
15673;SDS011;7937;48.090;16.212;2022-08-19T10:11:42;4.40;;;2.90;;
15673;SDS011;7937;48.090;16.212;2022-08-19T10:14:55;5.82;;;3.08;;
15673;SDS011;7937;48.090;16.212;2022-08-19T10:17:57;3.92;;;2.97;;
15673;SDS011;7937;48.090;16.212;2022-08-19T10:21:05;4.30;;;3.10;;
15673;SDS011;7937;48.090;16.212;2022-08-19T10:24:12;4.90;;;3.75;;
15673;SDS011;7937;48.090;16.212;2022-08-19T10:27:14;4.40;;;3.22;;
15673;SDS011;7937;48.090;16.212;2022-08-19T10:30:17;5.22;;;3.20;;
15673;SDS011;7937;48.090;16.212;2022-08-19T10:33:20;3.83;;;2.97;;
15673;SDS011;7937;48.090;16.212;2022-08-19T10:36:42;8.07;;;3.97;;
15673;SDS011;7937;48.090;16.212;2022-08-19T10:39:56;7.80;;;4.03;;
15673;SDS011;7937;48.090;16.212;2022-08-19T10:42:59;8.35;;;4.00;;
15673;SDS011;7937;48.090;16.212;2022-08-19T10:46:01;7.00;;;3.22;;
15673;SDS011;7937;48.090;16.212;2022-08-19T10:49:04;6.93;;;3.80;;
15673;SDS011;7937;48.090;16.212;2022-08-19T10:52:07;4.15;;;3.10;;
15673;SDS011;7937;48.090;16.212;2022-08-19T10:55:33;4.30;;;3.70;;
15673;SDS011;7937;48.090;16.212;2022-08-19T10:58:53;5.90;;;3.50;;
15673;SDS011;7937;48.090;16.212;2022-08-19T11:01:59;5.20;;;3.45;;
15673;SDS011;7937;48.090;16.212;2022-08-19T11:05:02;8.05;;;3.65;;
15673;SDS011;7937;48.090;16.212;2022-08-19T11:08:13;3.97;;;3.20;;
15673;SDS011;7937;48.090;16.212;2022-08-19T11:11:24;9.52;;;3.97;;
15673;SDS011;7937;48.090;16.212;2022-08-19T11:14:26;5.50;;;3.42;;
15673;SDS011;7937;48.090;16.212;2022-08-19T11:17:34;5.88;;;3.30;;
15673;SDS011;7937;48.090;16.212;2022-08-19T11:20:37;5.53;;;3.30;;
15673;SDS011;7937;48.090;16.212;2022-08-19T11:23:40;8.38;;;3.35;;
15673;SDS011;7937;48.090;16.212;2022-08-19T11:26:42;6.38;;;3.70;;
15673;SDS011;7937;48.090;16.212;2022-08-19T11:29:46;5.68;;;3.28;;
15673;SDS011;7937;48.090;16.212;2022-08-19T11:32:48;8.70;;;3.80;;
15673;SDS011;7937;48.090;16.212;2022-08-19T11:35:51;6.45;;;3.42;;
15673;SDS011;7937;48.090;16.212;2022-08-19T11:38:54;9.23;;;4.05;;
15673;SDS011;7937;48.090;16.212;2022-08-19T11:42:00;6.57;;;3.45;;
15673;SDS011;7937;48.090;16.212;2022-08-19T11:45:26;7.70;;;3.55;;
15673;SDS011;7937;48.090;16.212;2022-08-19T11:48:29;5.07;;;4.07;;
15673;SDS011;7937;48.090;16.212;2022-08-19T11:51:31;9.60;;;4.03;;
15673;SDS011;7937;48.090;16.212;2022-08-19T11:54:35;7.20;;;3.65;;
15673;SDS011;7937;48.090;16.212;2022-08-19T11:57:37;12.90;;;4.38;;
15673;SDS011;7937;48.090;16.212;2022-08-19T12:00:39;9.85;;;3.92;;
15673;SDS011;7937;48.090;16.212;2022-08-19T12:03:44;8.88;;;3.92;;
15673;SDS011;7937;48.090;16.212;2022-08-19T12:06:47;8.52;;;4.05;;
15673;SDS011;7937;48.090;16.212;2022-08-19T12:09:49;11.05;;;3.35;;
15673;SDS011;7937;48.090;16.212;2022-08-19T12:12:52;8.77;;;3.80;;
15673;SDS011;7937;48.090;16.212;2022-08-19T12:15:59;9.15;;;3.83;;
15673;SDS011;7937;48.090;16.212;2022-08-19T12:19:03;10.32;;;3.85;;
15673;SDS011;7937;48.090;16.212;2022-08-19T12:22:06;8.77;;;3.13;;
15673;SDS011;7937;48.090;16.212;2022-08-19T12:25:10;13.68;;;3.92;;
15673;SDS011;7937;48.090;16.212;2022-08-19T12:28:13;11.80;;;4.75;;
15673;SDS011;7937;48.090;16.212;2022-08-19T12:31:15;13.40;;;4.35;;
15673;SDS011;7937;48.090;16.212;2022-08-19T12:34:17;9.18;;;3.95;;
15673;SDS011;7937;48.090;16.212;2022-08-19T12:37:21;10.68;;;3.40;;
15673;SDS011;7937;48.090;16.212;2022-08-19T12:40:24;8.52;;;3.75;;
15673;SDS011;7937;48.090;16.212;2022-08-19T12:43:27;7.70;;;3.83;;
15673;SDS011;7937;48.090;16.212;2022-08-19T12:46:31;9.88;;;4.00;;
15673;SDS011;7937;48.090;16.212;2022-08-19T12:49:34;11.13;;;4.28;;
15673;SDS011;7937;48.090;16.212;2022-08-19T12:52:55;13.23;;;4.13;;
15673;SDS011;7937;48.090;16.212;2022-08-19T12:55:58;13.95;;;4.28;;
15673;SDS011;7937;48.090;16.212;2022-08-19T12:59:02;12.95;;;4.60;;
15673;SDS011;7937;48.090;16.212;2022-08-19T13:02:05;9.10;;;3.90;;
15673;SDS011;7937;48.090;16.212;2022-08-19T13:05:09;8.98;;;3.95;;
15673;SDS011;7937;48.090;16.212;2022-08-19T13:08:13;8.50;;;3.75;;
15673;SDS011;7937;48.090;16.212;2022-08-19T13:11:17;12.57;;;3.67;;
15673;SDS011;7937;48.090;16.212;2022-08-19T13:14:21;9.13;;;3.63;;
15673;SDS011;7937;48.090;16.212;2022-08-19T13:17:24;11.45;;;4.13;;
15673;SDS011;7937;48.090;16.212;2022-08-19T13:20:26;9.73;;;3.95;;
15673;SDS011;7937;48.090;16.212;2022-08-19T13:23:29;9.25;;;3.85;;
15673;SDS011;7937;48.090;16.212;2022-08-19T13:26:31;11.98;;;4.30;;
15673;SDS011;7937;48.090;16.212;2022-08-19T13:29:34;11.25;;;3.70;;
15673;SDS011;7937;48.090;16.212;2022-08-19T13:32:54;8.32;;;3.47;;
15673;SDS011;7937;48.090;16.212;2022-08-19T13:36:17;7.85;;;4.13;;
15673;SDS011;7937;48.090;16.212;2022-08-19T13:39:20;9.55;;;4.05;;
15673;SDS011;7937;48.090;16.212;2022-08-19T13:42:25;10.27;;;4.03;;
15673;SDS011;7937;48.090;16.212;2022-08-19T13:45:28;14.05;;;4.05;;
15673;SDS011;7937;48.090;16.212;2022-08-19T13:48:31;10.13;;;3.72;;
15673;SDS011;7937;48.090;16.212;2022-08-19T13:51:33;7.55;;;3.70;;
15673;SDS011;7937;48.090;16.212;2022-08-19T13:54:36;11.95;;;4.15;;
15673;SDS011;7937;48.090;16.212;2022-08-19T13:57:38;12.30;;;3.42;;
15673;SDS011;7937;48.090;16.212;2022-08-19T14:00:44;10.73;;;3.45;;
15673;SDS011;7937;48.090;16.212;2022-08-19T14:03:48;7.60;;;3.80;;
15673;SDS011;7937;48.090;16.212;2022-08-19T14:06:50;7.85;;;3.30;;
15673;SDS011;7937;48.090;16.212;2022-08-19T14:09:52;9.13;;;3.58;;
15673;SDS011;7937;48.090;16.212;2022-08-19T14:12:55;8.75;;;4.00;;
15673;SDS011;7937;48.090;16.212;2022-08-19T14:15:59;7.82;;;3.17;;
15673;SDS011;7937;48.090;16.212;2022-08-19T14:19:02;13.68;;;3.60;;
15673;SDS011;7937;48.090;16.212;2022-08-19T14:22:04;11.60;;;3.75;;
15673;SDS011;7937;48.090;16.212;2022-08-19T14:25:07;8.20;;;2.90;;
15673;SDS011;7937;48.090;16.212;2022-08-19T14:28:12;8.95;;;2.80;;
15673;SDS011;7937;48.090;16.212;2022-08-19T14:31:15;7.28;;;2.38;;
15673;SDS011;7937;48.090;16.212;2022-08-19T14:34:20;5.70;;;2.53;;
15673;SDS011;7937;48.090;16.212;2022-08-19T14:37:24;7.97;;;2.70;;
15673;SDS011;7937;48.090;16.212;2022-08-19T14:40:29;8.45;;;2.28;;
15673;SDS011;7937;48.090;16.212;2022-08-19T14:43:31;8.20;;;2.58;;
15673;SDS011;7937;48.090;16.212;2022-08-19T14:46:33;7.43;;;2.85;;
15673;SDS011;7937;48.090;16.212;2022-08-19T14:49:37;6.88;;;2.60;;
15673;SDS011;7937;48.090;16.212;2022-08-19T14:52:49;5.07;;;2.38;;
15673;SDS011;7937;48.090;16.212;2022-08-19T14:55:52;8.77;;;2.70;;
15673;SDS011;7937;48.090;16.212;2022-08-19T14:58:54;12.60;;;2.83;;
15673;SDS011;7937;48.090;16.212;2022-08-19T15:01:58;10.20;;;2.88;;
15673;SDS011;7937;48.090;16.212;2022-08-19T15:05:21;5.60;;;2.45;;
15673;SDS011;7937;48.090;16.212;2022-08-19T15:08:23;7.90;;;2.58;;
15673;SDS011;7937;48.090;16.212;2022-08-19T15:11:26;8.50;;;2.58;;
15673;SDS011;7937;48.090;16.212;2022-08-19T15:14:29;7.18;;;2.53;;
15673;SDS011;7937;48.090;16.212;2022-08-19T15:17:36;6.07;;;2.20;;
15673;SDS011;7937;48.090;16.212;2022-08-19T15:20:47;9.23;;;2.70;;
15673;SDS011;7937;48.090;16.212;2022-08-19T15:23:50;12.48;;;2.60;;
15673;SDS011;7937;48.090;16.212;2022-08-19T15:26:53;9.90;;;2.92;;
15673;SDS011;7937;48.090;16.212;2022-08-19T15:29:57;10.85;;;2.95;;
15673;SDS011;7937;48.090;16.212;2022-08-19T15:33:02;9.57;;;2.60;;
15673;SDS011;7937;48.090;16.212;2022-08-19T15:36:04;7.75;;;2.35;;
15673;SDS011;7937;48.090;16.212;2022-08-19T15:39:08;8.13;;;2.45;;
15673;SDS011;7937;48.090;16.212;2022-08-19T15:42:11;13.13;;;2.80;;
15673;SDS011;7937;48.090;16.212;2022-08-19T15:45:19;7.72;;;2.47;;
15673;SDS011;7937;48.090;16.212;2022-08-19T15:48:22;8.88;;;2.72;;
15673;SDS011;7937;48.090;16.212;2022-08-19T15:51:25;7.60;;;2.00;;
15673;SDS011;7937;48.090;16.212;2022-08-19T15:54:28;8.85;;;2.42;;
15673;SDS011;7937;48.090;16.212;2022-08-19T15:57:30;10.63;;;2.70;;
15673;SDS011;7937;48.090;16.212;2022-08-19T16:00:32;7.93;;;2.90;;
15673;SDS011;7937;48.090;16.212;2022-08-19T16:03:54;12.25;;;2.88;;
15673;SDS011;7937;48.090;16.212;2022-08-19T16:07:16;9.93;;;2.40;;
15673;SDS011;7937;48.090;16.212;2022-08-19T16:10:24;8.25;;;2.53;;
15673;SDS011;7937;48.090;16.212;2022-08-19T16:13:28;7.65;;;2.50;;
15673;SDS011;7937;48.090;16.212;2022-08-19T16:16:33;7.25;;;3.00;;
15673;SDS011;7937;48.090;16.212;2022-08-19T16:19:36;9.13;;;2.75;;
15673;SDS011;7937;48.090;16.212;2022-08-19T16:22:39;8.20;;;2.58;;
15673;SDS011;7937;48.090;16.212;2022-08-19T16:25:41;11.15;;;2.65;;
15673;SDS011;7937;48.090;16.212;2022-08-19T16:28:43;7.38;;;2.55;;
15673;SDS011;7937;48.090;16.212;2022-08-19T16:31:49;7.75;;;2.70;;
15673;SDS011;7937;48.090;16.212;2022-08-19T16:34:51;6.93;;;2.65;;
15673;SDS011;7937;48.090;16.212;2022-08-19T16:37:53;9.48;;;2.47;;
15673;SDS011;7937;48.090;16.212;2022-08-19T16:40:55;8.45;;;2.80;;
15673;SDS011;7937;48.090;16.212;2022-08-19T16:43:59;5.57;;;2.35;;
15673;SDS011;7937;48.090;16.212;2022-08-19T16:47:02;8.95;;;2.60;;
15673;SDS011;7937;48.090;16.212;2022-08-19T16:50:04;9.13;;;2.45;;
15673;SDS011;7937;48.090;16.212;2022-08-19T16:53:08;7.30;;;2.70;;
15673;SDS011;7937;48.090;16.212;2022-08-19T16:56:10;7.28;;;2.90;;
15673;SDS011;7937;48.090;16.212;2022-08-19T16:59:13;6.30;;;2.10;;
15673;SDS011;7937;48.090;16.212;2022-08-19T18:05:10;7.18;;;2.58;;
15673;SDS011;7937;48.090;16.212;2022-08-19T18:08:13;5.95;;;2.47;;
15673;SDS011;7937;48.090;16.212;2022-08-19T18:11:15;6.45;;;2.35;;
15673;SDS011;7937;48.090;16.212;2022-08-19T18:14:18;6.82;;;2.50;;
15673;SDS011;7937;48.090;16.212;2022-08-19T18:17:20;4.95;;;2.10;;
15673;SDS011;7937;48.090;16.212;2022-08-19T18:20:23;5.85;;;2.45;;
15673;SDS011;7937;48.090;16.212;2022-08-19T18:23:26;4.78;;;2.38;;
15673;SDS011;7937;48.090;16.212;2022-08-19T18:26:46;7.07;;;2.30;;
15673;SDS011;7937;48.090;16.212;2022-08-19T18:29:48;4.07;;;2.00;;
15673;SDS011;7937;48.090;16.212;2022-08-19T18:32:51;6.13;;;2.73;;
15673;SDS011;7937;48.090;16.212;2022-08-19T18:35:54;5.63;;;2.10;;
15673;SDS011;7937;48.090;16.212;2022-08-19T18:38:56;4.73;;;2.63;;
15673;SDS011;7937;48.090;16.212;2022-08-19T18:42:17;7.30;;;2.20;;
15673;SDS011;7937;48.090;16.212;2022-08-19T18:45:38;4.77;;;2.10;;
15673;SDS011;7937;48.090;16.212;2022-08-19T18:48:59;6.68;;;2.20;;
15673;SDS011;7937;48.090;16.212;2022-08-19T18:52:05;5.43;;;2.30;;
15673;SDS011;7937;48.090;16.212;2022-08-19T18:55:08;6.10;;;1.90;;
15673;SDS011;7937;48.090;16.212;2022-08-19T18:58:10;4.53;;;2.13;;
15673;SDS011;7937;48.090;16.212;2022-08-19T19:01:22;9.90;;;2.93;;
15673;SDS011;7937;48.090;16.212;2022-08-19T19:04:29;7.57;;;2.47;;
15673;SDS011;7937;48.090;16.212;2022-08-19T19:07:34;5.05;;;2.42;;
15673;SDS011;7937;48.090;16.212;2022-08-19T19:10:36;5.37;;;2.10;;
15673;SDS011;7937;48.090;16.212;2022-08-19T19:13:39;5.10;;;2.27;;
15673;SDS011;7937;48.090;16.212;2022-08-19T19:16:41;4.70;;;2.00;;
15673;SDS011;7937;48.090;16.212;2022-08-19T19:19:47;5.70;;;2.43;;
15673;SDS011;7937;48.090;16.212;2022-08-19T19:22:49;4.13;;;1.77;;
15673;SDS011;7937;48.090;16.212;2022-08-19T19:25:56;5.77;;;2.47;;
15673;SDS011;7937;48.090;16.212;2022-08-19T19:28:59;3.87;;;2.17;;
15673;SDS011;7937;48.090;16.212;2022-08-19T19:32:02;3.97;;;1.97;;
15673;SDS011;7937;48.090;16.212;2022-08-19T19:35:06;6.75;;;2.22;;
15673;SDS011;7937;48.090;16.212;2022-08-19T19:38:11;9.48;;;2.90;;
15673;SDS011;7937;48.090;16.212;2022-08-19T19:41:13;3.43;;;1.90;;
15673;SDS011;7937;48.090;16.212;2022-08-19T19:44:18;7.57;;;2.87;;
15673;SDS011;7937;48.090;16.212;2022-08-19T19:47:33;7.43;;;2.40;;
15673;SDS011;7937;48.090;16.212;2022-08-19T19:50:35;9.40;;;3.13;;